Chilmark, Massachusetts
Current Conditions -  °F | °C
As of 11:53 PM on Saturday 22 Nov 2014 (Local Time) from KMVY Reporting Station
Overcast Overcast  
Wind Chill: 42°   Ceiling: 6500
Heat Index: 49°   Visibility: 10mi
Dew Point: 38°   Wind: 21mph
Humidity: 66%   Direction: 240°WSW
Pressure: 30.14"   Gusts: 30mph
Location:  41.34°N, 70.75°W
Report Text: KMVY 230453Z AUTO 24018G26KT 10SM OVC065 09/03 A3014 RMK AO2 PK WND 24029/0425 SLP205 T00940033 401001028
Loading
Personal Weather Stations






























Interactive Weather Map New forecast layout! Learn more

10-Day Weather Forecast

Advertisements
Track Severe Weather on mobile